createdAt,value
2018-07-24T11:26:33.350Z,2.70
2018-07-24T11:29:05.918Z,2.90
2018-07-24T11:31:38.187Z,2.80
2018-07-24T11:34:10.609Z,2.67
2018-07-24T11:36:43.246Z,2.70
2018-07-24T11:39:15.645Z,2.55
2018-07-24T11:41:48.090Z,2.77
2018-07-24T11:44:20.534Z,2.98
2018-07-24T11:46:53.218Z,2.98
2018-07-24T11:49:25.630Z,2.70
2018-07-24T11:51:58.119Z,2.60
2018-07-24T11:54:30.489Z,2.62
2018-07-24T11:57:02.913Z,2.77
2018-07-24T11:59:35.322Z,2.98
2018-07-24T12:02:07.990Z,3.40
2018-07-24T12:04:40.421Z,3.02
2018-07-24T12:07:12.942Z,3.25
2018-07-24T12:09:45.393Z,3.20
2018-07-24T12:12:17.806Z,3.15
2018-07-24T12:14:50.342Z,3.22
2018-07-24T12:17:22.929Z,3.40
2018-07-24T12:19:55.321Z,3.70
2018-07-24T12:22:27.729Z,3.27
2018-07-24T12:25:00.134Z,3.45
2018-07-24T12:27:32.785Z,3.33
2018-07-24T12:30:05.181Z,3.37
2018-07-24T12:32:37.602Z,3.35
2018-07-24T12:35:10.250Z,3.47
2018-07-24T12:37:42.929Z,4.15
2018-07-24T12:40:15.913Z,3.98
2018-07-24T12:42:48.326Z,3.60
2018-07-24T12:45:20.738Z,4.10
2018-07-24T12:47:53.197Z,3.33
2018-07-24T12:50:25.585Z,4.22
2018-07-24T12:52:58.001Z,3.58
2018-07-24T12:55:30.658Z,3.40
2018-07-24T12:58:03.117Z,3.27
2018-07-24T13:00:35.506Z,3.60
2018-07-24T13:03:07.935Z,3.77
2018-07-24T13:05:40.360Z,3.98
2018-07-24T13:08:12.793Z,3.58
2018-07-24T13:10:45.253Z,3.85
2018-07-24T13:13:17.741Z,3.83
2018-07-24T13:15:50.159Z,4.00
2018-07-24T13:18:22.616Z,4.15
2018-07-24T13:20:55.238Z,4.05
2018-07-24T13:23:27.953Z,3.90
2018-07-24T13:26:00.637Z,3.72
2018-07-24T13:28:33.070Z,3.98
2018-07-24T13:31:05.599Z,4.00
2018-07-24T13:33:38.370Z,4.08
2018-07-24T13:36:11.129Z,3.67
2018-07-24T13:38:43.541Z,3.95
2018-07-24T13:41:15.948Z,4.33
2018-07-24T13:43:48.380Z,4.20
2018-07-24T13:46:20.785Z,4.33
2018-07-24T13:48:53.438Z,3.80
2018-07-24T13:51:25.941Z,4.03
2018-07-24T13:53:58.542Z,4.55
2018-07-24T13:56:30.992Z,3.87
2018-07-24T13:59:03.440Z,3.62
2018-07-24T14:01:36.421Z,3.90
2018-07-24T14:04:08.905Z,3.65
2018-07-24T14:06:41.945Z,4.00
2018-07-24T14:09:14.660Z,3.75
2018-07-24T14:11:47.625Z,4.15
2018-07-24T14:14:20.628Z,3.80
2018-07-24T14:16:53.058Z,3.37
2018-07-24T14:19:25.481Z,3.80
2018-07-24T14:21:57.909Z,4.00
2018-07-24T14:24:30.374Z,3.40
2018-07-24T14:27:02.815Z,3.65
2018-07-24T14:29:35.474Z,3.40
2018-07-24T14:32:08.262Z,3.75
2018-07-24T14:34:40.689Z,3.55
2018-07-24T14:37:13.318Z,3.60
2018-07-24T14:39:45.749Z,3.67
2018-07-24T14:42:18.166Z,3.75
2018-07-24T14:44:50.604Z,3.77
2018-07-24T14:47:23.508Z,4.20
2018-07-24T14:49:55.983Z,4.10
2018-07-24T14:52:28.396Z,3.80
2018-07-24T14:55:00.932Z,4.05
2018-07-24T14:57:33.351Z,3.70
2018-07-24T15:00:06.138Z,3.52
2018-07-24T15:02:38.585Z,3.33
2018-07-24T15:05:11.404Z,3.50
2018-07-24T15:07:43.833Z,3.72
2018-07-24T15:10:16.280Z,3.58
2018-07-24T15:12:48.959Z,3.77
2018-07-24T15:15:21.390Z,3.75
2018-07-24T15:17:53.802Z,3.37
2018-07-24T15:20:26.797Z,3.70
2018-07-24T15:22:59.480Z,3.75
2018-07-24T15:25:32.178Z,3.60
2018-07-24T15:28:04.590Z,3.83
2018-07-24T15:30:37.209Z,3.60
2018-07-24T15:33:09.645Z,3.80
2018-07-24T15:35:42.066Z,3.70
2018-07-24T15:38:14.481Z,3.60
2018-07-24T15:40:46.893Z,3.92
2018-07-24T15:43:19.584Z,4.00
2018-07-24T15:45:52.242Z,3.95
2018-07-24T15:48:24.708Z,3.60
2018-07-24T15:50:57.368Z,3.58
2018-07-24T15:53:30.066Z,3.50
2018-07-24T15:56:03.549Z,3.17
2018-07-24T15:58:36.059Z,3.67
2018-07-24T16:01:08.484Z,3.67
2018-07-24T16:03:40.910Z,4.17
2018-07-24T16:06:13.691Z,3.65
2018-07-24T16:08:46.133Z,3.90
2018-07-24T16:11:18.634Z,4.20
2018-07-24T16:13:51.418Z,3.92
2018-07-24T16:16:23.853Z,3.98
2018-07-24T16:18:56.348Z,4.62
2018-07-24T16:21:28.644Z,4.00
2018-07-24T16:24:01.422Z,3.77
2018-07-24T16:26:33.923Z,4.00
2018-07-24T16:29:06.689Z,3.98
2018-07-24T16:31:39.148Z,3.83
2018-07-24T16:34:11.672Z,3.95
2018-07-24T16:36:45.187Z,4.25
2018-07-24T16:39:17.670Z,3.67
2018-07-24T16:41:50.081Z,3.67
2018-07-24T16:44:22.508Z,3.83
2018-07-24T16:46:54.916Z,3.77
2018-07-24T16:49:27.414Z,3.83
2018-07-24T16:52:00.372Z,4.08
2018-07-24T16:54:32.816Z,3.75
2018-07-24T16:57:05.366Z,3.75
2018-07-24T16:59:37.813Z,3.70
2018-07-24T17:02:10.250Z,4.40
2018-07-24T17:04:42.689Z,4.00
2018-07-24T17:07:15.133Z,4.10
2018-07-24T17:09:47.579Z,3.92
2018-07-24T17:12:20.249Z,3.67
2018-07-24T17:14:52.693Z,4.00
2018-07-24T17:17:25.212Z,3.90
2018-07-24T17:19:57.690Z,3.60
2018-07-24T17:22:30.219Z,4.00
2018-07-24T17:25:02.705Z,3.83
2018-07-24T17:27:35.181Z,3.85
2018-07-24T17:30:08.094Z,3.52
2018-07-24T17:32:40.498Z,3.90
2018-07-24T17:35:12.920Z,4.03
2018-07-24T17:37:45.326Z,4.00
2018-07-24T17:40:17.782Z,3.90
2018-07-24T17:42:50.277Z,3.58
2018-07-24T17:45:22.702Z,3.65
2018-07-24T17:47:55.208Z,4.05
2018-07-24T17:50:28.137Z,4.25
2018-07-24T17:53:00.531Z,4.08
2018-07-24T17:55:33.044Z,3.67
2018-07-24T17:58:05.560Z,3.87
2018-07-24T18:00:38.302Z,3.70
2018-07-24T18:03:10.767Z,3.42
2018-07-24T18:05:43.243Z,3.72
2018-07-24T18:08:15.678Z,3.65
2018-07-24T18:10:48.498Z,4.80
2018-07-24T18:13:20.972Z,4.83
2018-07-24T18:15:53.514Z,4.25
2018-07-24T18:18:25.901Z,4.83
2018-07-24T18:20:58.381Z,5.35
2018-07-24T18:23:31.138Z,7.25
2018-07-24T18:26:04.263Z,10.20
2018-07-24T18:28:36.484Z,10.58
2018-07-24T18:31:08.945Z,9.05
2018-07-24T18:33:41.674Z,7.75
2018-07-24T18:36:14.081Z,6.28
2018-07-24T18:38:46.843Z,5.90
2018-07-24T18:41:19.277Z,5.72
2018-07-24T18:43:51.840Z,4.80
2018-07-24T18:46:25.364Z,4.75
2018-07-24T18:48:58.141Z,4.25
2018-07-24T18:51:30.849Z,4.50
2018-07-24T18:54:03.292Z,4.25
2018-07-24T18:56:36.002Z,4.65
2018-07-24T18:59:08.890Z,4.87
2018-07-24T19:01:41.342Z,4.53
2018-07-24T19:04:14.345Z,5.08
2018-07-24T19:06:46.766Z,4.87
2018-07-24T19:09:19.193Z,4.78
2018-07-24T19:11:52.171Z,4.92
2018-07-24T19:14:24.615Z,4.87
2018-07-24T19:16:57.033Z,4.78
2018-07-24T19:19:29.803Z,4.87
2018-07-24T19:22:02.209Z,4.67
2018-07-24T19:24:34.625Z,4.95
2018-07-24T19:27:07.042Z,4.53
2018-07-24T19:29:39.432Z,4.30
2018-07-24T19:32:11.859Z,4.90
2018-07-24T19:34:44.332Z,4.92
2018-07-24T19:37:16.713Z,5.15
2018-07-24T19:39:49.393Z,4.90
2018-07-24T19:42:22.181Z,5.25
2018-07-24T19:44:54.581Z,5.25
2018-07-24T19:47:27.056Z,4.90
2018-07-24T19:49:59.472Z,5.00
2018-07-24T19:52:32.146Z,5.15
2018-07-24T19:55:04.666Z,5.10
2018-07-24T19:57:37.086Z,5.45
2018-07-24T20:00:09.777Z,5.47
2018-07-24T20:02:42.272Z,5.03
2018-07-24T20:05:15.009Z,5.10
2018-07-24T20:07:47.430Z,4.85
2018-07-24T20:10:20.120Z,5.67
2018-07-24T20:12:53.089Z,5.40
2018-07-24T20:15:25.772Z,5.20
2018-07-24T20:17:58.346Z,5.45
2018-07-24T20:20:30.822Z,5.80
2018-07-24T20:23:03.385Z,5.80
